createdAt,value
2023-02-07T07:21:43.730Z,4.26
2023-02-07T07:24:35.923Z,4.41
2023-02-07T07:27:20.253Z,4.35
2023-02-07T07:29:48.310Z,4.62
2023-02-07T07:35:06.666Z,4.57
2023-02-07T07:37:40.845Z,4.70
2023-02-07T07:40:12.636Z,4.53
2023-02-07T07:42:40.720Z,4.53
2023-02-07T07:45:14.427Z,4.55
2023-02-07T07:47:42.796Z,4.40
2023-02-07T07:50:11.370Z,4.79
2023-02-07T07:52:43.069Z,4.80
2023-02-07T07:55:12.022Z,4.57
2023-02-07T07:57:41.630Z,4.78
2023-02-07T08:00:12.136Z,4.61
2023-02-07T08:02:40.286Z,4.79
2023-02-07T08:05:08.802Z,4.83
2023-02-07T08:07:37.251Z,4.68
2023-02-07T08:10:08.548Z,4.64
2023-02-07T08:12:37.270Z,4.77
2023-02-07T08:15:07.759Z,4.58
2023-02-07T08:17:36.334Z,4.44
2023-02-07T08:20:05.845Z,4.72
2023-02-07T08:22:35.173Z,4.71
2023-02-07T08:25:07.061Z,4.81
2023-02-07T08:27:37.157Z,5.06
2023-02-07T08:30:05.979Z,4.78
2023-02-07T08:32:34.896Z,4.70
2023-02-07T08:35:03.266Z,5.03
2023-02-07T08:37:31.355Z,4.81
2023-02-07T08:40:01.132Z,5.13
2023-02-07T08:42:29.021Z,5.19
2023-02-07T08:44:58.497Z,5.23
2023-02-07T08:47:27.194Z,4.97
2023-02-07T08:49:55.678Z,4.89
2023-02-07T08:52:23.930Z,4.87
2023-02-07T08:54:55.603Z,5.41
2023-02-07T08:57:25.841Z,5.47
2023-02-07T08:59:54.285Z,5.45
2023-02-07T09:02:25.892Z,5.51
2023-02-07T09:04:54.102Z,5.65
2023-02-07T09:07:23.748Z,5.43
2023-02-07T09:09:52.211Z,5.87
2023-02-07T09:12:21.382Z,5.64
2023-02-07T09:14:49.419Z,5.83
2023-02-07T09:17:17.981Z,6.12
2023-02-07T09:19:51.939Z,5.88
2023-02-07T09:22:20.554Z,5.94
2023-02-07T09:24:49.354Z,6.17
2023-02-07T09:27:17.482Z,6.41
2023-02-07T09:29:46.373Z,6.42
2023-02-07T09:32:14.537Z,6.26
2023-02-07T09:34:44.361Z,6.71
2023-02-07T09:37:14.300Z,6.78
2023-02-07T09:39:44.918Z,6.35
2023-02-07T09:45:19.332Z,6.88
2023-02-07T09:47:53.538Z,6.44
2023-02-07T09:50:25.833Z,6.86
2023-02-07T09:53:00.209Z,7.06
2023-02-07T09:55:42.655Z,6.62
2023-02-07T09:58:16.047Z,6.71
2023-02-07T10:00:48.316Z,7.07
2023-02-07T10:03:19.928Z,7.09
2023-02-07T10:08:51.352Z,7.08
2023-02-07T10:11:50.243Z,7.18
2023-02-07T10:14:58.380Z,7.36
2023-02-07T10:18:09.184Z,7.43
2023-02-07T10:21:06.193Z,7.15
2023-02-07T10:23:50.863Z,7.53
2023-02-07T10:26:34.266Z,7.68
2023-02-07T10:29:38.704Z,7.73
